Terminal Aerodrome Forecast
Issued by NWS

Home | Current Version | Previous Version | Text Only | Print | Product List | Glossary On
Versions: 1 2 3 4 5 6 7 8 9 10 11 12 13 14 15 16 17 18 19 20 21 22
018
FTUS43 KICT 252324
TAFRSL
TAF
KRSL 252324Z 2600/2624 10007KT P6SM SKC
     FM260800 10004KT 6SM BR SCT030
     FM261000 10004KT 5SM BR SCT020
     FM261500 14004KT P6SM FEW150
     FM261900 15011KT P6SM FEW250=

USA.gov is the U.S. government's official web portal to all federal, state and local government web resources and services.